sensor_id;sensor_type;location;lat;lon;timestamp;temperature;humidity
34646;DHT22;20857;47.808;12.482;2023-03-01T00:00:50;0.10;99.90
34646;DHT22;20857;47.808;12.482;2023-03-01T00:03:15;0.30;99.90
34646;DHT22;20857;47.808;12.482;2023-03-01T00:05:44;0.20;99.90
34646;DHT22;20857;47.808;12.482;2023-03-01T00:08:10;0.20;99.90
34646;DHT22;20857;47.808;12.482;2023-03-01T00:10:36;0.20;99.90
34646;DHT22;20857;47.808;12.482;2023-03-01T00:13:01;0.20;99.90
34646;DHT22;20857;47.808;12.482;2023-03-01T00:15:27;0.20;99.90
34646;DHT22;20857;47.808;12.482;2023-03-01T00:17:53;0.20;99.90
34646;DHT22;20857;47.808;12.482;2023-03-01T00:20:18;0.20;99.90
34646;DHT22;20857;47.808;12.482;2023-03-01T00:22:44;0.20;99.90
34646;DHT22;20857;47.808;12.482;2023-03-01T00:25:09;0.20;99.90
34646;DHT22;20857;47.808;12.482;2023-03-01T00:27:35;0.30;99.90
34646;DHT22;20857;47.808;12.482;2023-03-01T00:30:00;0.30;99.90
34646;DHT22;20857;47.808;12.482;2023-03-01T00:32:26;0.30;99.90
34646;DHT22;20857;47.808;12.482;2023-03-01T00:34:51;0.30;99.90
34646;DHT22;20857;47.808;12.482;2023-03-01T00:37:21;1.70;99.90
34646;DHT22;20857;47.808;12.482;2023-03-01T00:39:46;0.20;99.90
34646;DHT22;20857;47.808;12.482;2023-03-01T00:42:12;0.20;99.90
34646;DHT22;20857;47.808;12.482;2023-03-01T00:44:37;0.30;99.90
34646;DHT22;20857;47.808;12.482;2023-03-01T00:47:03;0.40;99.90
34646;DHT22;20857;47.808;12.482;2023-03-01T00:49:28;0.30;99.90
34646;DHT22;20857;47.808;12.482;2023-03-01T00:51:54;0.30;99.90
34646;DHT22;20857;47.808;12.482;2023-03-01T00:54:19;0.30;99.90
34646;DHT22;20857;47.808;12.482;2023-03-01T00:56:45;0.20;99.90
34646;DHT22;20857;47.808;12.482;2023-03-01T00:59:10;0.20;99.90
34646;DHT22;20857;47.808;12.482;2023-03-01T01:01:36;0.30;99.90
34646;DHT22;20857;47.808;12.482;2023-03-01T01:04:09;0.40;99.90
34646;DHT22;20857;47.808;12.482;2023-03-01T01:06:36;0.40;99.90
34646;DHT22;20857;47.808;12.482;2023-03-01T01:09:03;0.30;99.90
34646;DHT22;20857;47.808;12.482;2023-03-01T01:11:29;0.30;99.90
34646;DHT22;20857;47.808;12.482;2023-03-01T01:13:55;0.30;99.90
34646;DHT22;20857;47.808;12.482;2023-03-01T01:16:22;0.30;99.90
34646;DHT22;20857;47.808;12.482;2023-03-01T01:18:47;0.20;99.90
34646;DHT22;20857;47.808;12.482;2023-03-01T01:21:14;0.30;99.90
34646;DHT22;20857;47.808;12.482;2023-03-01T01:23:40;0.30;99.90
34646;DHT22;20857;47.808;12.482;2023-03-01T01:26:16;0.40;99.90
34646;DHT22;20857;47.808;12.482;2023-03-01T01:28:42;0.40;99.90
34646;DHT22;20857;47.808;12.482;2023-03-01T01:31:07;0.50;99.90
34646;DHT22;20857;47.808;12.482;2023-03-01T01:33:33;0.40;99.90
34646;DHT22;20857;47.808;12.482;2023-03-01T01:35:58;0.40;99.90
34646;DHT22;20857;47.808;12.482;2023-03-01T01:38:24;0.30;99.90
34646;DHT22;20857;47.808;12.482;2023-03-01T01:40:50;0.20;99.90
34646;DHT22;20857;47.808;12.482;2023-03-01T01:43:17;0.20;99.90
34646;DHT22;20857;47.808;12.482;2023-03-01T01:45:43;0.30;99.90
34646;DHT22;20857;47.808;12.482;2023-03-01T01:48:10;0.30;99.90
34646;DHT22;20857;47.808;12.482;2023-03-01T01:50:38;0.20;99.90
34646;DHT22;20857;47.808;12.482;2023-03-01T01:53:05;0.20;99.90
34646;DHT22;20857;47.808;12.482;2023-03-01T01:55:31;0.10;99.90
34646;DHT22;20857;47.808;12.482;2023-03-01T01:57:58;0.30;99.90
34646;DHT22;20857;47.808;12.482;2023-03-01T02:00:27;0.30;99.90
34646;DHT22;20857;47.808;12.482;2023-03-01T02:02:56;0.30;99.90
34646;DHT22;20857;47.808;12.482;2023-03-01T02:07:52;0.30;99.90
34646;DHT22;20857;47.808;12.482;2023-03-01T02:10:17;0.30;99.90
34646;DHT22;20857;47.808;12.482;2023-03-01T02:12:43;0.30;99.90
34646;DHT22;20857;47.808;12.482;2023-03-01T02:15:09;0.40;99.90
34646;DHT22;20857;47.808;12.482;2023-03-01T02:17:34;0.40;99.90
34646;DHT22;20857;47.808;12.482;2023-03-01T02:20:22;0.40;99.90
34646;DHT22;20857;47.808;12.482;2023-03-01T02:22:48;0.40;99.90
34646;DHT22;20857;47.808;12.482;2023-03-01T02:30:11;0.20;99.90
34646;DHT22;20857;47.808;12.482;2023-03-01T02:32:38;0.20;99.90
34646;DHT22;20857;47.808;12.482;2023-03-01T02:35:08;0.20;99.90
34646;DHT22;20857;47.808;12.482;2023-03-01T02:37:34;0.30;99.90
34646;DHT22;20857;47.808;12.482;2023-03-01T02:40:02;0.30;99.90
34646;DHT22;20857;47.808;12.482;2023-03-01T02:42:30;0.20;99.90
34646;DHT22;20857;47.808;12.482;2023-03-01T02:44:57;0.30;99.90
34646;DHT22;20857;47.808;12.482;2023-03-01T02:47:22;0.30;99.90
34646;DHT22;20857;47.808;12.482;2023-03-01T02:49:48;0.20;99.90
34646;DHT22;20857;47.808;12.482;2023-03-01T02:52:22;0.20;99.90
34646;DHT22;20857;47.808;12.482;2023-03-01T02:57:23;0.30;99.90
34646;DHT22;20857;47.808;12.482;2023-03-01T02:59:48;0.20;99.90
34646;DHT22;20857;47.808;12.482;2023-03-01T03:02:19;0.30;99.90
34646;DHT22;20857;47.808;12.482;2023-03-01T03:04:46;0.30;99.90
34646;DHT22;20857;47.808;12.482;2023-03-01T03:07:11;0.20;99.90
34646;DHT22;20857;47.808;12.482;2023-03-01T03:09:37;0.20;99.90
34646;DHT22;20857;47.808;12.482;2023-03-01T03:12:02;0.00;99.90
34646;DHT22;20857;47.808;12.482;2023-03-01T03:14:28;0.00;99.90
34646;DHT22;20857;47.808;12.482;2023-03-01T03:16:53;0.10;99.90
34646;DHT22;20857;47.808;12.482;2023-03-01T03:19:19;0.00;99.90
34646;DHT22;20857;47.808;12.482;2023-03-01T03:21:44;0.00;99.90
34646;DHT22;20857;47.808;12.482;2023-03-01T03:24:10;0.00;99.90
34646;DHT22;20857;47.808;12.482;2023-03-01T03:26:36;0.00;99.90
34646;DHT22;20857;47.808;12.482;2023-03-01T03:29:03;0.00;99.90
34646;DHT22;20857;47.808;12.482;2023-03-01T03:31:28;0.00;99.90
34646;DHT22;20857;47.808;12.482;2023-03-01T03:33:54;-0.10;99.90
34646;DHT22;20857;47.808;12.482;2023-03-01T03:36:21;-0.10;99.90
34646;DHT22;20857;47.808;12.482;2023-03-01T03:38:46;-0.20;99.90
34646;DHT22;20857;47.808;12.482;2023-03-01T03:41:12;-0.20;99.90
34646;DHT22;20857;47.808;12.482;2023-03-01T03:43:39;-0.20;99.90
34646;DHT22;20857;47.808;12.482;2023-03-01T03:46:05;-0.10;99.90
34646;DHT22;20857;47.808;12.482;2023-03-01T03:48:31;-0.10;99.90
34646;DHT22;20857;47.808;12.482;2023-03-01T03:50:58;0.70;99.90
34646;DHT22;20857;47.808;12.482;2023-03-01T03:53:24;-0.10;99.90
34646;DHT22;20857;47.808;12.482;2023-03-01T03:55:50;-0.10;99.90
34646;DHT22;20857;47.808;12.482;2023-03-01T03:58:17;-0.10;99.90
34646;DHT22;20857;47.808;12.482;2023-03-01T04:00:45;-0.20;99.90
34646;DHT22;20857;47.808;12.482;2023-03-01T04:03:11;-0.10;99.90
34646;DHT22;20857;47.808;12.482;2023-03-01T04:05:37;-0.10;99.90
34646;DHT22;20857;47.808;12.482;2023-03-01T04:08:03;-0.10;99.90
34646;DHT22;20857;47.808;12.482;2023-03-01T04:10:33;-0.10;99.90
34646;DHT22;20857;47.808;12.482;2023-03-01T04:12:59;-0.10;99.90
34646;DHT22;20857;47.808;12.482;2023-03-01T04:15:25;-0.20;99.90
34646;DHT22;20857;47.808;12.482;2023-03-01T04:17:52;-0.20;99.90
34646;DHT22;20857;47.808;12.482;2023-03-01T04:20:20;-0.40;99.90
34646;DHT22;20857;47.808;12.482;2023-03-01T04:22:52;-0.40;99.90
34646;DHT22;20857;47.808;12.482;2023-03-01T04:25:22;-0.40;99.90
34646;DHT22;20857;47.808;12.482;2023-03-01T04:27:48;-0.40;99.90
34646;DHT22;20857;47.808;12.482;2023-03-01T04:30:14;-0.40;99.90
34646;DHT22;20857;47.808;12.482;2023-03-01T04:32:39;-0.50;99.90
34646;DHT22;20857;47.808;12.482;2023-03-01T04:35:05;-0.60;99.90
34646;DHT22;20857;47.808;12.482;2023-03-01T04:37:30;-0.60;99.90
34646;DHT22;20857;47.808;12.482;2023-03-01T04:39:56;-0.60;99.90
34646;DHT22;20857;47.808;12.482;2023-03-01T04:42:21;-0.50;99.90
34646;DHT22;20857;47.808;12.482;2023-03-01T04:44:47;-0.60;99.90
34646;DHT22;20857;47.808;12.482;2023-03-01T04:47:13;-0.50;99.90
34646;DHT22;20857;47.808;12.482;2023-03-01T04:49:38;-0.60;99.90
34646;DHT22;20857;47.808;12.482;2023-03-01T04:52:04;-0.50;99.90
34646;DHT22;20857;47.808;12.482;2023-03-01T04:54:33;-0.60;99.90
34646;DHT22;20857;47.808;12.482;2023-03-01T04:56:59;-0.60;99.90
34646;DHT22;20857;47.808;12.482;2023-03-01T04:59:25;-0.50;99.90
34646;DHT22;20857;47.808;12.482;2023-03-01T05:01:51;-0.60;99.90
34646;DHT22;20857;47.808;12.482;2023-03-01T05:04:17;-0.60;99.90
34646;DHT22;20857;47.808;12.482;2023-03-01T05:06:42;-0.60;99.90
34646;DHT22;20857;47.808;12.482;2023-03-01T05:09:08;-0.70;99.90
34646;DHT22;20857;47.808;12.482;2023-03-01T05:11:33;-0.70;99.90
34646;DHT22;20857;47.808;12.482;2023-03-01T05:14:01;-0.80;99.90
34646;DHT22;20857;47.808;12.482;2023-03-01T05:16:27;-0.70;99.90
34646;DHT22;20857;47.808;12.482;2023-03-01T05:18:52;-0.70;99.90
34646;DHT22;20857;47.808;12.482;2023-03-01T05:21:18;-0.80;99.90
34646;DHT22;20857;47.808;12.482;2023-03-01T05:23:43;-0.80;99.90
34646;DHT22;20857;47.808;12.482;2023-03-01T05:26:09;-0.80;99.90
34646;DHT22;20857;47.808;12.482;2023-03-01T05:28:35;-0.80;99.90
34646;DHT22;20857;47.808;12.482;2023-03-01T05:31:00;-0.80;99.90
34646;DHT22;20857;47.808;12.482;2023-03-01T05:33:26;-0.80;99.90
34646;DHT22;20857;47.808;12.482;2023-03-01T05:35:52;-0.80;99.90
34646;DHT22;20857;47.808;12.482;2023-03-01T05:38:19;-0.80;99.90
34646;DHT22;20857;47.808;12.482;2023-03-01T05:40:46;-0.80;99.90
34646;DHT22;20857;47.808;12.482;2023-03-01T05:43:12;-0.80;99.90
34646;DHT22;20857;47.808;12.482;2023-03-01T05:45:38;-0.90;99.90
34646;DHT22;20857;47.808;12.482;2023-03-01T05:48:04;-0.80;99.90
34646;DHT22;20857;47.808;12.482;2023-03-01T05:50:32;-0.80;99.90
34646;DHT22;20857;47.808;12.482;2023-03-01T05:52:58;-0.90;99.90
34646;DHT22;20857;47.808;12.482;2023-03-01T05:55:24;-0.80;99.90
34646;DHT22;20857;47.808;12.482;2023-03-01T05:57:50;-0.80;99.90
34646;DHT22;20857;47.808;12.482;2023-03-01T06:00:17;-0.80;99.90
34646;DHT22;20857;47.808;12.482;2023-03-01T06:02:42;-0.80;99.90
34646;DHT22;20857;47.808;12.482;2023-03-01T06:05:08;-0.70;99.90
34646;DHT22;20857;47.808;12.482;2023-03-01T06:07:34;-0.70;99.90
34646;DHT22;20857;47.808;12.482;2023-03-01T06:10:00;-0.70;99.90
34646;DHT22;20857;47.808;12.482;2023-03-01T06:12:25;-0.40;99.90
34646;DHT22;20857;47.808;12.482;2023-03-01T06:14:51;-0.60;99.90
34646;DHT22;20857;47.808;12.482;2023-03-01T06:17:16;-0.70;99.90
34646;DHT22;20857;47.808;12.482;2023-03-01T06:19:42;-0.60;99.90
34646;DHT22;20857;47.808;12.482;2023-03-01T06:22:07;-0.50;99.90
34646;DHT22;20857;47.808;12.482;2023-03-01T06:24:33;-0.60;99.90
34646;DHT22;20857;47.808;12.482;2023-03-01T06:26:59;-0.40;99.90
34646;DHT22;20857;47.808;12.482;2023-03-01T06:29:24;-0.40;99.90
34646;DHT22;20857;47.808;12.482;2023-03-01T06:31:50;-0.50;99.90
34646;DHT22;20857;47.808;12.482;2023-03-01T06:34:15;-0.60;99.90
34646;DHT22;20857;47.808;12.482;2023-03-01T06:36:41;-0.40;99.90
34646;DHT22;20857;47.808;12.482;2023-03-01T06:39:06;-0.60;99.90
34646;DHT22;20857;47.808;12.482;2023-03-01T06:41:32;-0.60;99.90
34646;DHT22;20857;47.808;12.482;2023-03-01T06:43:58;-0.30;99.90
34646;DHT22;20857;47.808;12.482;2023-03-01T06:46:24;-0.40;99.90
34646;DHT22;20857;47.808;12.482;2023-03-01T06:48:49;-0.20;99.90
34646;DHT22;20857;47.808;12.482;2023-03-01T06:51:15;-0.30;99.90
34646;DHT22;20857;47.808;12.482;2023-03-01T06:53:40;-0.40;99.90
34646;DHT22;20857;47.808;12.482;2023-03-01T06:56:06;-0.40;99.90
34646;DHT22;20857;47.808;12.482;2023-03-01T06:58:31;-0.50;99.90
34646;DHT22;20857;47.808;12.482;2023-03-01T07:00:57;-0.30;99.90
34646;DHT22;20857;47.808;12.482;2023-03-01T07:03:22;-0.40;99.90
34646;DHT22;20857;47.808;12.482;2023-03-01T07:05:48;-0.40;99.90
34646;DHT22;20857;47.808;12.482;2023-03-01T07:08:14;-0.20;99.90
34646;DHT22;20857;47.808;12.482;2023-03-01T07:10:40;-0.40;99.90
34646;DHT22;20857;47.808;12.482;2023-03-01T07:13:05;0.00;99.90
34646;DHT22;20857;47.808;12.482;2023-03-01T07:15:32;0.10;99.90
34646;DHT22;20857;47.808;12.482;2023-03-01T07:17:58;0.20;99.90
34646;DHT22;20857;47.808;12.482;2023-03-01T07:20:23;0.20;99.90
34646;DHT22;20857;47.808;12.482;2023-03-01T07:22:51;0.20;99.90
34646;DHT22;20857;47.808;12.482;2023-03-01T07:25:16;0.20;99.90
34646;DHT22;20857;47.808;12.482;2023-03-01T07:27:42;0.20;99.90
34646;DHT22;20857;47.808;12.482;2023-03-01T07:30:08;0.10;99.90
34646;DHT22;20857;47.808;12.482;2023-03-01T07:32:33;0.20;99.90
34646;DHT22;20857;47.808;12.482;2023-03-01T07:34:59;0.30;99.90
34646;DHT22;20857;47.808;12.482;2023-03-01T07:37:24;0.20;99.90
34646;DHT22;20857;47.808;12.482;2023-03-01T07:39:50;0.40;99.90
34646;DHT22;20857;47.808;12.482;2023-03-01T07:42:15;0.50;99.90
34646;DHT22;20857;47.808;12.482;2023-03-01T07:44:41;0.50;99.90
34646;DHT22;20857;47.808;12.482;2023-03-01T07:47:06;0.50;99.90
34646;DHT22;20857;47.808;12.482;2023-03-01T07:49:32;0.60;99.90
34646;DHT22;20857;47.808;12.482;2023-03-01T07:51:57;0.50;99.90
34646;DHT22;20857;47.808;12.482;2023-03-01T07:54:23;0.70;99.90
34646;DHT22;20857;47.808;12.482;2023-03-01T07:56:49;0.70;99.90
34646;DHT22;20857;47.808;12.482;2023-03-01T07:59:14;0.70;99.90
34646;DHT22;20857;47.808;12.482;2023-03-01T08:01:40;0.80;99.90
34646;DHT22;20857;47.808;12.482;2023-03-01T08:04:05;1.00;99.90
34646;DHT22;20857;47.808;12.482;2023-03-01T08:06:33;0.90;99.90
34646;DHT22;20857;47.808;12.482;2023-03-01T08:08:59;1.10;99.90
34646;DHT22;20857;47.808;12.482;2023-03-01T08:11:24;1.30;99.90
34646;DHT22;20857;47.808;12.482;2023-03-01T08:13:50;1.50;99.90
34646;DHT22;20857;47.808;12.482;2023-03-01T08:16:15;1.50;99.90
34646;DHT22;20857;47.808;12.482;2023-03-01T08:18:41;1.80;99.90
34646;DHT22;20857;47.808;12.482;2023-03-01T08:21:08;2.00;99.90
34646;DHT22;20857;47.808;12.482;2023-03-01T08:23:35;2.10;99.90
34646;DHT22;20857;47.808;12.482;2023-03-01T08:26:20;2.00;99.90
34646;DHT22;20857;47.808;12.482;2023-03-01T08:28:45;2.00;99.90
34646;DHT22;20857;47.808;12.482;2023-03-01T08:31:18;2.10;99.90
34646;DHT22;20857;47.808;12.482;2023-03-01T08:33:45;2.30;99.90
34646;DHT22;20857;47.808;12.482;2023-03-01T08:36:16;2.20;99.90
34646;DHT22;20857;47.808;12.482;2023-03-01T08:38:41;2.60;99.90
34646;DHT22;20857;47.808;12.482;2023-03-01T08:41:07;2.60;99.90
34646;DHT22;20857;47.808;12.482;2023-03-01T08:43:32;2.80;99.90
34646;DHT22;20857;47.808;12.482;2023-03-01T08:45:58;3.00;99.90
34646;DHT22;20857;47.808;12.482;2023-03-01T08:48:24;2.80;99.90
34646;DHT22;20857;47.808;12.482;2023-03-01T08:50:49;2.90;99.90
34646;DHT22;20857;47.808;12.482;2023-03-01T08:53:15;3.20;99.90
34646;DHT22;20857;47.808;12.482;2023-03-01T08:58:13;3.20;99.90
34646;DHT22;20857;47.808;12.482;2023-03-01T09:00:38;3.10;99.90
34646;DHT22;20857;47.808;12.482;2023-03-01T09:03:05;3.10;99.90
34646;DHT22;20857;47.808;12.482;2023-03-01T09:05:31;3.20;99.90
34646;DHT22;20857;47.808;12.482;2023-03-01T09:07:57;3.30;99.90
34646;DHT22;20857;47.808;12.482;2023-03-01T09:10:22;3.30;99.90
34646;DHT22;20857;47.808;12.482;2023-03-01T09:12:48;5.40;99.90
34646;DHT22;20857;47.808;12.482;2023-03-01T09:15:13;3.70;99.90
34646;DHT22;20857;47.808;12.482;2023-03-01T09:17:39;3.80;99.90
34646;DHT22;20857;47.808;12.482;2023-03-01T09:20:04;3.60;99.90
34646;DHT22;20857;47.808;12.482;2023-03-01T09:22:32;3.70;99.90
34646;DHT22;20857;47.808;12.482;2023-03-01T09:24:58;3.60;99.90
34646;DHT22;20857;47.808;12.482;2023-03-01T09:27:24;4.30;99.90
34646;DHT22;20857;47.808;12.482;2023-03-01T09:29:50;4.60;99.90
34646;DHT22;20857;47.808;12.482;2023-03-01T09:32:15;4.10;99.90
34646;DHT22;20857;47.808;12.482;2023-03-01T09:34:41;4.10;99.90
34646;DHT22;20857;47.808;12.482;2023-03-01T09:37:39;4.20;99.90
34646;DHT22;20857;47.808;12.482;2023-03-01T09:40:18;4.40;99.90
34646;DHT22;20857;47.808;12.482;2023-03-01T09:43:00;4.20;99.90
34646;DHT22;20857;47.808;12.482;2023-03-01T09:45:35;4.10;99.90
34646;DHT22;20857;47.808;12.482;2023-03-01T09:48:00;4.00;99.90
34646;DHT22;20857;47.808;12.482;2023-03-01T09:50:28;4.30;99.90
34646;DHT22;20857;47.808;12.482;2023-03-01T09:55:50;4.40;99.90
34646;DHT22;20857;47.808;12.482;2023-03-01T10:01:09;4.50;99.90
34646;DHT22;20857;47.808;12.482;2023-03-01T10:03:41;4.80;99.90
34646;DHT22;20857;47.808;12.482;2023-03-01T10:06:15;5.00;99.90
34646;DHT22;20857;47.808;12.482;2023-03-01T10:08:54;4.90;99.90
34646;DHT22;20857;47.808;12.482;2023-03-01T10:11:26;4.00;99.90
34646;DHT22;20857;47.808;12.482;2023-03-01T10:19:03;4.70;99.90
34646;DHT22;20857;47.808;12.482;2023-03-01T10:21:30;4.60;99.90
34646;DHT22;20857;47.808;12.482;2023-03-01T10:24:07;4.60;99.90
34646;DHT22;20857;47.808;12.482;2023-03-01T10:39:32;4.50;99.90
34646;DHT22;20857;47.808;12.482;2023-03-01T10:41:59;4.30;99.90
34646;DHT22;20857;47.808;12.482;2023-03-01T10:47:08;4.40;99.90
34646;DHT22;20857;47.808;12.482;2023-03-01T10:49:38;4.10;99.90
34646;DHT22;20857;47.808;12.482;2023-03-01T10:52:11;4.20;99.90
34646;DHT22;20857;47.808;12.482;2023-03-01T10:54:37;4.10;99.90
34646;DHT22;20857;47.808;12.482;2023-03-01T10:57:04;3.80;99.90
34646;DHT22;20857;47.808;12.482;2023-03-01T10:59:31;3.70;99.90
34646;DHT22;20857;47.808;12.482;2023-03-01T11:02:02;3.80;99.90
34646;DHT22;20857;47.808;12.482;2023-03-01T11:04:28;4.00;99.90
34646;DHT22;20857;47.808;12.482;2023-03-01T11:07:00;4.20;99.90
34646;DHT22;20857;47.808;12.482;2023-03-01T11:09:26;4.20;99.90
34646;DHT22;20857;47.808;12.482;2023-03-01T11:11:57;4.10;99.90
34646;DHT22;20857;47.808;12.482;2023-03-01T11:14:26;4.10;99.90
34646;DHT22;20857;47.808;12.482;2023-03-01T11:17:05;3.90;99.90
34646;DHT22;20857;47.808;12.482;2023-03-01T11:19:31;3.90;99.90
34646;DHT22;20857;47.808;12.482;2023-03-01T11:27:04;3.90;99.90
34646;DHT22;20857;47.808;12.482;2023-03-01T11:29:43;3.50;99.90
34646;DHT22;20857;47.808;12.482;2023-03-01T11:32:11;3.60;99.90
34646;DHT22;20857;47.808;12.482;2023-03-01T11:34:49;3.60;99.90
34646;DHT22;20857;47.808;12.482;2023-03-01T11:37:21;3.70;99.90
34646;DHT22;20857;47.808;12.482;2023-03-01T11:39:58;3.70;99.90
34646;DHT22;20857;47.808;12.482;2023-03-01T11:42:39;3.80;99.90
34646;DHT22;20857;47.808;12.482;2023-03-01T11:45:09;3.40;99.90
34646;DHT22;20857;47.808;12.482;2023-03-01T11:53:30;4.20;99.90
34646;DHT22;20857;47.808;12.482;2023-03-01T11:55:52;4.20;99.90
34646;DHT22;20857;47.808;12.482;2023-03-01T11:58:31;4.30;99.90
34646;DHT22;20857;47.808;12.482;2023-03-01T12:13:54;5.10;99.90
34646;DHT22;20857;47.808;12.482;2023-03-01T12:24:06;5.30;99.90
34646;DHT22;20857;47.808;12.482;2023-03-01T12:26:43;5.50;99.90
34646;DHT22;20857;47.808;12.482;2023-03-01T12:29:27;5.50;99.90
34646;DHT22;20857;47.808;12.482;2023-03-01T12:34:29;6.10;99.90
34646;DHT22;20857;47.808;12.482;2023-03-01T12:42:52;6.00;99.90
34646;DHT22;20857;47.808;12.482;2023-03-01T12:50:42;5.20;99.90
34646;DHT22;20857;47.808;12.482;2023-03-01T12:53:26;5.00;99.90
34646;DHT22;20857;47.808;12.482;2023-03-01T12:55:53;5.10;99.90
34646;DHT22;20857;47.808;12.482;2023-03-01T12:58:32;5.50;99.90
34646;DHT22;20857;47.808;12.482;2023-03-01T13:01:03;5.30;99.90
34646;DHT22;20857;47.808;12.482;2023-03-01T13:08:44;5.20;99.90
34646;DHT22;20857;47.808;12.482;2023-03-01T13:11:18;4.80;99.90
34646;DHT22;20857;47.808;12.482;2023-03-01T13:13:44;5.10;99.90
34646;DHT22;20857;47.808;12.482;2023-03-01T13:16:22;5.00;99.90
34646;DHT22;20857;47.808;12.482;2023-03-01T13:19:08;5.30;99.90
34646;DHT22;20857;47.808;12.482;2023-03-01T13:21:35;5.60;99.90
34646;DHT22;20857;47.808;12.482;2023-03-01T13:24:00;5.60;99.90
34646;DHT22;20857;47.808;12.482;2023-03-01T13:26:26;5.80;99.90
34646;DHT22;20857;47.808;12.482;2023-03-01T13:28:55;5.60;99.90
34646;DHT22;20857;47.808;12.482;2023-03-01T13:36:49;4.60;99.90
34646;DHT22;20857;47.808;12.482;2023-03-01T13:39:27;4.40;99.90
34646;DHT22;20857;47.808;12.482;2023-03-01T13:41:54;4.30;99.90
34646;DHT22;20857;47.808;12.482;2023-03-01T13:46:49;4.50;99.90
34646;DHT22;20857;47.808;12.482;2023-03-01T13:49:16;4.60;99.90
34646;DHT22;20857;47.808;12.482;2023-03-01T13:51:46;4.70;99.90
34646;DHT22;20857;47.808;12.482;2023-03-01T13:54:11;4.80;99.90
34646;DHT22;20857;47.808;12.482;2023-03-01T13:56:37;6.20;99.90
34646;DHT22;20857;47.808;12.482;2023-03-01T13:59:06;5.30;99.90
34646;DHT22;20857;47.808;12.482;2023-03-01T14:01:37;5.50;99.90
34646;DHT22;20857;47.808;12.482;2023-03-01T14:04:03;5.80;99.90
34646;DHT22;20857;47.808;12.482;2023-03-01T14:06:43;6.20;99.90
34646;DHT22;20857;47.808;12.482;2023-03-01T14:09:19;6.00;99.90
34646;DHT22;20857;47.808;12.482;2023-03-01T14:19:27;6.40;99.90
34646;DHT22;20857;47.808;12.482;2023-03-01T14:24:44;6.70;99.90
34646;DHT22;20857;47.808;12.482;2023-03-01T14:27:11;6.80;99.90
34646;DHT22;20857;47.808;12.482;2023-03-01T14:29:38;9.40;99.90
34646;DHT22;20857;47.808;12.482;2023-03-01T14:32:19;6.60;99.90
34646;DHT22;20857;47.808;12.482;2023-03-01T14:34:46;6.50;99.90
34646;DHT22;20857;47.808;12.482;2023-03-01T14:39:47;6.40;99.90
34646;DHT22;20857;47.808;12.482;2023-03-01T14:42:13;6.40;99.90
34646;DHT22;20857;47.808;12.482;2023-03-01T14:44:40;6.50;99.90
34646;DHT22;20857;47.808;12.482;2023-03-01T14:47:06;6.40;99.90
34646;DHT22;20857;47.808;12.482;2023-03-01T14:49:34;6.20;99.90
34646;DHT22;20857;47.808;12.482;2023-03-01T14:54:43;5.90;99.90
34646;DHT22;20857;47.808;12.482;2023-03-01T14:57:16;6.00;99.90
34646;DHT22;20857;47.808;12.482;2023-03-01T14:59:42;5.80;99.90
34646;DHT22;20857;47.808;12.482;2023-03-01T15:02:11;5.50;99.90
34646;DHT22;20857;47.808;12.482;2023-03-01T15:04:42;5.70;99.90
34646;DHT22;20857;47.808;12.482;2023-03-01T15:07:09;6.60;99.90
34646;DHT22;20857;47.808;12.482;2023-03-01T15:09:37;5.60;99.90
34646;DHT22;20857;47.808;12.482;2023-03-01T15:12:23;5.50;99.90
34646;DHT22;20857;47.808;12.482;2023-03-01T15:14:48;5.60;99.90
34646;DHT22;20857;47.808;12.482;2023-03-01T15:19:45;6.10;99.90
34646;DHT22;20857;47.808;12.482;2023-03-01T15:22:15;5.80;99.90
34646;DHT22;20857;47.808;12.482;2023-03-01T15:24:41;5.80;99.90
34646;DHT22;20857;47.808;12.482;2023-03-01T15:27:14;5.60;99.90
34646;DHT22;20857;47.808;12.482;2023-03-01T15:29:40;5.60;99.90
34646;DHT22;20857;47.808;12.482;2023-03-01T15:32:29;5.40;99.90
34646;DHT22;20857;47.808;12.482;2023-03-01T15:34:55;5.40;99.90
34646;DHT22;20857;47.808;12.482;2023-03-01T15:39:59;5.60;99.90
34646;DHT22;20857;47.808;12.482;2023-03-01T15:44:57;6.10;99.90
34646;DHT22;20857;47.808;12.482;2023-03-01T15:47:32;6.40;99.90
34646;DHT22;20857;47.808;12.482;2023-03-01T15:49:59;6.50;99.90
34646;DHT22;20857;47.808;12.482;2023-03-01T15:52:26;6.60;99.90
34646;DHT22;20857;47.808;12.482;2023-03-01T15:54:58;6.60;99.90
34646;DHT22;20857;47.808;12.482;2023-03-01T15:57:24;6.70;99.90
34646;DHT22;20857;47.808;12.482;2023-03-01T15:59:50;6.90;99.90
34646;DHT22;20857;47.808;12.482;2023-03-01T16:02:15;6.90;99.90
34646;DHT22;20857;47.808;12.482;2023-03-01T16:04:40;6.60;99.90
34646;DHT22;20857;47.808;12.482;2023-03-01T16:07:06;6.30;99.90
34646;DHT22;20857;47.808;12.482;2023-03-01T16:09:31;5.50;99.90
34646;DHT22;20857;47.808;12.482;2023-03-01T16:11:57;5.30;99.90
34646;DHT22;20857;47.808;12.482;2023-03-01T16:14:23;4.90;99.90
34646;DHT22;20857;47.808;12.482;2023-03-01T16:16:48;4.60;99.90
34646;DHT22;20857;47.808;12.482;2023-03-01T16:19:15;4.30;99.90
34646;DHT22;20857;47.808;12.482;2023-03-01T16:21:40;3.80;99.90
34646;DHT22;20857;47.808;12.482;2023-03-01T16:24:09;3.70;99.90
34646;DHT22;20857;47.808;12.482;2023-03-01T16:26:35;3.50;99.90
34646;DHT22;20857;47.808;12.482;2023-03-01T16:29:01;3.20;99.90
34646;DHT22;20857;47.808;12.482;2023-03-01T16:31:27;3.10;99.90
34646;DHT22;20857;47.808;12.482;2023-03-01T16:33:54;3.50;99.90
34646;DHT22;20857;47.808;12.482;2023-03-01T16:36:20;2.90;99.90
34646;DHT22;20857;47.808;12.482;2023-03-01T16:38:48;2.80;99.90
34646;DHT22;20857;47.808;12.482;2023-03-01T16:41:15;2.70;99.90
34646;DHT22;20857;47.808;12.482;2023-03-01T16:43:40;2.60;99.90
34646;DHT22;20857;47.808;12.482;2023-03-01T16:46:14;2.30;99.90
34646;DHT22;20857;47.808;12.482;2023-03-01T16:48:39;2.20;99.90
34646;DHT22;20857;47.808;12.482;2023-03-01T16:51:05;2.00;99.90
34646;DHT22;20857;47.808;12.482;2023-03-01T16:53:32;2.00;99.90
34646;DHT22;20857;47.808;12.482;2023-03-01T16:55:59;2.00;99.90
34646;DHT22;20857;47.808;12.482;2023-03-01T16:58:25;1.70;99.90
34646;DHT22;20857;47.808;12.482;2023-03-01T17:00:51;1.70;99.90
34646;DHT22;20857;47.808;12.482;2023-03-01T17:03:19;1.60;99.90
34646;DHT22;20857;47.808;12.482;2023-03-01T17:05:44;1.50;99.90
34646;DHT22;20857;47.808;12.482;2023-03-01T17:08:10;1.40;99.90
34646;DHT22;20857;47.808;12.482;2023-03-01T17:10:35;1.30;99.90
34646;DHT22;20857;47.808;12.482;2023-03-01T17:13:01;1.30;99.90
34646;DHT22;20857;47.808;12.482;2023-03-01T17:15:26;1.10;99.90
34646;DHT22;20857;47.808;12.482;2023-03-01T17:17:52;1.20;99.90
34646;DHT22;20857;47.808;12.482;2023-03-01T17:20:17;1.10;99.90
34646;DHT22;20857;47.808;12.482;2023-03-01T17:22:43;1.00;99.90
34646;DHT22;20857;47.808;12.482;2023-03-01T17:25:09;1.00;99.90
34646;DHT22;20857;47.808;12.482;2023-03-01T17:27:35;1.00;99.90
34646;DHT22;20857;47.808;12.482;2023-03-01T17:30:01;0.90;99.90